Airfield :
LOGIN :

Register | Disclaimer

   EN    FR    IT 

 










Legend :    VFR   Marginal VFR   IFR   Intensive IFR   Very Intensive IFR
Visi :
Ceiling :
>= 8 km
>= 3000ft
5 to 8 km
1000 to 3000 ft
1500m to 5 km
500 to 1000 ft
800 to 1500m
200 to 500 ft
< 800m
< 200 ft
Symbols :   Thunderstorms  Fog  Heavy snow  Heavy precipitations  Wind > 20 kt
SIGMETs :     Misc.  Thunderstorms  Icing  Turbulence  Mountain Waves  Volcanic Ashes






- Airport Elevation : 44 ft
- IATA code : SOU


EGHI - Southampton

CURRENT METAR :
  • 150920Z 17004KT 110V220 9999 FEW015 22/16 Q1003

EXPIRED METARs :
  • 150850Z 19006KT 140V220 9999 FEW015 22/16 Q1003
  • 150820Z 18004KT 130V220 9000 BKN012 21/16 Q1003
  • 150750Z 00000KT 8000 BKN010 20/16 Q1003
  • 150720Z 20005KT 170V250 8000 BKN009 19/17 Q1003
  • 150650Z 20005KT 160V250 6000 BKN007 18/17 Q1003

TAF TAF EGHI
Valid from the 15 at 09:00 until the 15 at 18:00 UTC


150757Z 1509/1518 18003KT 8000 BKN008
BECMG 1509/1512 CAVOK
PROB30
TEMPO 1515/1518 7000 SHRA
ATIS : +44 23 8062 7103



MET'MAP, your aeronautical weather chart ! - Copyright ORBIFLY December 2007 - Disclaimer

ORBIFLY MET'MAP TEAM :

Programming & Development : Alexandra Zaïnal
Original concept : Baudouin d'Aumeries
Technical & hardware support : Manuel Goepfert
Assistance : Marc-Olivier Méhu




SOURCES & CREDITS :

   NOAA